Galena, Missouri
Current Conditions -  °F | °C
As of 6:55 PM on Friday 19 Dec 2014 (Local Time) from KFWB Reporting Station
Haze Haze  
Wind Chill: 34°   Ceiling: 300
Heat Index: 37°   Visibility: 1.5mi
Dew Point: 37°   Wind: 5mph
Humidity: 100%   Direction: 120°ESE
Pressure: 30.19"   Gusts: NA
Location:  36.81°N, 93.47°W
Report Text: KFWB 200055Z AUTO 12004KT 1 1/2SM BR OVC003 03/03 A3019 RMK AO2
Loading
Personal Weather Stations






























Interactive Weather Map New forecast layout! Learn more

10-Day Weather Forecast

Advertisements
Track Severe Weather on mobile